Terminal Aerodrome Forecast
Issued by NWS Billings, MT

Home | Current Version | Previous Version | Text Only | Print | Product List | Glossary On
Versions: 1 2 3 4 5 6 7 8 9 10 11 12 13 14 15 16 17 18 19 20 21 22 23 24 25 26 27 28 29 30 31 32 33 34 35 36 37 38 39 40 41 42 43 44 45 46
000
FTUS45 KBYZ 281738
TAFSHR
TAF
KSHR 281738Z 2818/2918 34006KT P6SM VCSH OVC015
     FM282100 VRB06KT P6SM VCSH SCT015 OVC025
     FM290000 VRB05KT P6SM BKN035
     FM290800 VRB02KT P6SM VCFG FEW001 BKN060
     FM291500 VRB06KT P6SM SCT080=

USA.gov is the U.S. government's official web portal to all federal, state and local government web resources and services.